Bethune, CO (80805)

8:46 PM MDT on July 28, 2014 (GMT -0600)
KCOBURLI6 Elev 4117 ft | 39.41 °N, 102.35 °W | Change Station

Current weather conditions updated 14 minutes ago

Clear
Clear
73.2 °F
Feels Like 77 °F
N
2.0
Wind Variable Wind from WSW
Gusts 5.0 mph

Tomorrow is forecast to be nearly the same temperature as today. Afternoon showers and thunderstorms.

Today
High -- | Low -- °F
--% Chance of Precip.
Yesterday
High -- | Low -- °F
Precip. -- in
5:46 AM 8:05 PM
Waxing Crescent, 4% visible
Pressure 30.12 in
Visibility 10.0 miles
Clouds Clear
Heat Index 77 °F
Dew Point 57 °F
Humidity 57%
Rainfall 0.00 in
Snow Depth Not available.
UV 0 out of 12
Pollen 6.80 out of 12
Air Quality Not available.
Flu Activity Not available.
METAR KITR 290153Z AUTO 16007KT 10SM CLR 23/13 A3026 RMK AO2 SLP198 T02280133

More Conditions Fewer Conditions

Pressure 30.12 in
Visibility 10.0 miles
Clouds Clear
Heat Index 77 °F
Dew Point 57 °F
Humidity 57%
Rainfall 0.00 in
Snow Depth Not available.
UV 0 out of 12
Pollen 6.80 out of 12
Air Quality Not available.
Flu Activity Not available.
METAR KITR 290153Z AUTO 16007KT 10SM CLR 23/13 A3026 RMK AO2 SLP198 T02280133

More Conditions Fewer Conditions

10-Day Weather Forecast

Almanac

Astronomy

Jul. 28, 2014 Rise Set
Actual Time 5:46 AM MDT 8:05 PM MDT
Civil Twilight 5:15 AM MDT 8:35 PM MDT
Nautical Twilight 4:38 AM MDT 9:13 PM MDT
Astronomical Twilight 3:57 AM MDT 9:54 PM MDT
Moon 7:28 AM MDT (7/28) 8:49 PM MDT (7/28)
Length of Visible Light 15h 19m
Length of Day
14h 19m
Tomorrow will be 1m 50s shorter.
Waxing Crescent, 4% of the Moon is Illuminated
Today
Waxing Crescent
Aug 3
First Quarter
Aug 10
Full
Aug 17
Last Quarter
Aug 25
New

Today's Extremes

State Highs State Lows

Community

WunderPhotos

Upload Photos

1,738,587 photos uploaded!

Nearby

Snow Depth

Station Depth Elevation
Echo Lake 0 in 10600 ft
Niwot 0 in 9910 ft
University Camp 0 in 10300 ft
Jackwhacker Gulch 1 in 10960 ft
Berthoud Summit 0 in 11300 ft

Earthquake Activity

City Distance Mag. Time & Date
No recent earthquake activity has been reported nearby.
Minimum magnitude displayed is 2.5.

Coastal Water Temperatures

Place Temperature
No Stations Reporting

Nearby Weather Stations

Station Location Temp. Heat Index Dew Point Humidity Wind Precip. Elev Updated Type
Burlington, CO 73.2 °F 77 °F 57 °F 57% WSW  at  2.0 mph 0.00 in / hr 4117 ft 8:31 PM MDT Normal
Illinois Street, Stratton, CO 72.3 °F 76 °F 59 °F 62% East  at  2.9 mph 0.00 in / hr 4419 ft 8:46 PM MDT Rapid Fire
Stratton Equity Coop, Stratton, CO 73.9 °F 77 °F 58 °F 58% SSE  at  3.0 mph 0.00 in / hr 4416 ft 8:46 PM MDT Normal
4M Feeders, Stratton, CO 72.1 °F 76 °F 59 °F 63% North  at  0.0 mph 0.00 in / hr 4531 ft 8:46 PM MDT Normal
South of Joes, Vona, CO 72.9 °F 77 °F 57 °F 57% SSE  at  4.0 mph 0.00 in / hr 4346 ft 8:46 PM MDT Rapid Fire

Show More Stations Show Fewer Stations